sensor_id;sensor_type;location;lat;lon;timestamp;P1;durP1;ratioP1;P2;durP2;ratioP2
52992;SDS011;38875;52.216;21.040;2022-09-17T00:02:23;7.05;;;2.78;;
52992;SDS011;38875;52.216;21.040;2022-09-17T00:04:49;8.07;;;2.95;;
52992;SDS011;38875;52.216;21.040;2022-09-17T00:07:16;7.65;;;3.25;;
52992;SDS011;38875;52.216;21.040;2022-09-17T00:09:42;7.00;;;2.83;;
52992;SDS011;38875;52.216;21.040;2022-09-17T00:12:08;7.80;;;3.03;;
52992;SDS011;38875;52.216;21.040;2022-09-17T00:14:34;7.32;;;2.88;;
52992;SDS011;38875;52.216;21.040;2022-09-17T00:17:00;6.78;;;3.08;;
52992;SDS011;38875;52.216;21.040;2022-09-17T00:19:27;9.10;;;3.10;;
52992;SDS011;38875;52.216;21.040;2022-09-17T00:21:53;4.90;;;2.45;;
52992;SDS011;38875;52.216;21.040;2022-09-17T00:24:19;9.18;;;2.53;;
52992;SDS011;38875;52.216;21.040;2022-09-17T00:26:46;7.32;;;2.60;;
52992;SDS011;38875;52.216;21.040;2022-09-17T00:29:12;7.10;;;3.05;;
52992;SDS011;38875;52.216;21.040;2022-09-17T00:31:38;7.43;;;2.92;;
52992;SDS011;38875;52.216;21.040;2022-09-17T00:34:04;6.25;;;2.70;;
52992;SDS011;38875;52.216;21.040;2022-09-17T00:36:30;8.27;;;3.00;;
52992;SDS011;38875;52.216;21.040;2022-09-17T00:38:59;5.40;;;2.60;;
52992;SDS011;38875;52.216;21.040;2022-09-17T00:41:27;5.47;;;2.83;;
52992;SDS011;38875;52.216;21.040;2022-09-17T00:43:55;6.13;;;2.65;;
52992;SDS011;38875;52.216;21.040;2022-09-17T00:49:05;7.63;;;3.13;;
52992;SDS011;38875;52.216;21.040;2022-09-17T00:51:38;5.05;;;2.80;;
52992;SDS011;38875;52.216;21.040;2022-09-17T00:56:38;8.00;;;2.70;;
52992;SDS011;38875;52.216;21.040;2022-09-17T00:59:06;8.77;;;2.60;;
52992;SDS011;38875;52.216;21.040;2022-09-17T01:01:33;8.60;;;2.72;;
52992;SDS011;38875;52.216;21.040;2022-09-17T01:03:59;5.10;;;2.60;;
52992;SDS011;38875;52.216;21.040;2022-09-17T01:06:32;8.10;;;2.92;;
52992;SDS011;38875;52.216;21.040;2022-09-17T01:09:10;11.02;;;3.08;;
52992;SDS011;38875;52.216;21.040;2022-09-17T01:14:46;13.23;;;3.10;;
52992;SDS011;38875;52.216;21.040;2022-09-17T01:20:02;5.47;;;2.17;;
52992;SDS011;38875;52.216;21.040;2022-09-17T01:22:57;8.25;;;2.70;;
52992;SDS011;38875;52.216;21.040;2022-09-17T01:36:44;8.93;;;2.72;;
52992;SDS011;38875;52.216;21.040;2022-09-17T01:39:39;7.18;;;2.63;;
52992;SDS011;38875;52.216;21.040;2022-09-17T01:44:54;5.38;;;2.33;;
52992;SDS011;38875;52.216;21.040;2022-09-17T01:49:50;5.88;;;2.67;;
52992;SDS011;38875;52.216;21.040;2022-09-17T01:52:20;6.22;;;2.53;;
52992;SDS011;38875;52.216;21.040;2022-09-17T01:54:50;5.28;;;2.25;;
52992;SDS011;38875;52.216;21.040;2022-09-17T01:57:25;8.93;;;3.20;;
52992;SDS011;38875;52.216;21.040;2022-09-17T01:59:56;8.68;;;2.75;;
52992;SDS011;38875;52.216;21.040;2022-09-17T02:02:31;6.32;;;2.47;;
52992;SDS011;38875;52.216;21.040;2022-09-17T02:06:04;6.45;;;2.67;;
52992;SDS011;38875;52.216;21.040;2022-09-17T02:08:10;8.43;;;2.90;;
52992;SDS011;38875;52.216;21.040;2022-09-17T02:10:44;6.65;;;3.00;;
52992;SDS011;38875;52.216;21.040;2022-09-17T02:13:16;5.45;;;2.72;;
52992;SDS011;38875;52.216;21.040;2022-09-17T02:15:48;7.30;;;2.67;;
52992;SDS011;38875;52.216;21.040;2022-09-17T02:18:26;6.53;;;2.35;;
52992;SDS011;38875;52.216;21.040;2022-09-17T02:21:12;7.78;;;2.88;;
52992;SDS011;38875;52.216;21.040;2022-09-17T02:23:49;6.60;;;2.75;;
52992;SDS011;38875;52.216;21.040;2022-09-17T02:26:23;8.80;;;2.75;;
52992;SDS011;38875;52.216;21.040;2022-09-17T02:29:04;4.80;;;2.63;;
52992;SDS011;38875;52.216;21.040;2022-09-17T02:31:34;7.63;;;2.80;;
52992;SDS011;38875;52.216;21.040;2022-09-17T02:34:00;9.05;;;3.22;;
52992;SDS011;38875;52.216;21.040;2022-09-17T02:36:28;5.55;;;2.33;;
52992;SDS011;38875;52.216;21.040;2022-09-17T02:38:57;6.50;;;2.63;;
52992;SDS011;38875;52.216;21.040;2022-09-17T02:41:31;5.30;;;2.80;;
52992;SDS011;38875;52.216;21.040;2022-09-17T02:52:35;9.85;;;2.90;;
52992;SDS011;38875;52.216;21.040;2022-09-17T02:58:22;7.43;;;2.80;;
52992;SDS011;38875;52.216;21.040;2022-09-17T03:00:53;6.32;;;2.80;;
52992;SDS011;38875;52.216;21.040;2022-09-17T03:03:22;10.55;;;2.75;;
52992;SDS011;38875;52.216;21.040;2022-09-17T03:05:56;6.38;;;2.63;;
52992;SDS011;38875;52.216;21.040;2022-09-17T03:08:29;8.15;;;2.97;;
52992;SDS011;38875;52.216;21.040;2022-09-17T03:10:59;8.25;;;2.58;;
52992;SDS011;38875;52.216;21.040;2022-09-17T03:13:25;5.97;;;2.80;;
52992;SDS011;38875;52.216;21.040;2022-09-17T03:15:50;5.45;;;3.10;;
52992;SDS011;38875;52.216;21.040;2022-09-17T03:22:22;6.65;;;2.75;;
52992;SDS011;38875;52.216;21.040;2022-09-17T03:24:48;8.10;;;3.08;;
52992;SDS011;38875;52.216;21.040;2022-09-17T03:27:13;7.28;;;2.90;;
52992;SDS011;38875;52.216;21.040;2022-09-17T03:29:39;7.50;;;3.33;;
52992;SDS011;38875;52.216;21.040;2022-09-17T03:32:05;8.48;;;3.53;;
52992;SDS011;38875;52.216;21.040;2022-09-17T03:34:31;9.65;;;3.55;;
52992;SDS011;38875;52.216;21.040;2022-09-17T03:36:57;8.25;;;3.63;;
52992;SDS011;38875;52.216;21.040;2022-09-17T03:39:23;8.38;;;3.63;;
52992;SDS011;38875;52.216;21.040;2022-09-17T03:41:48;7.22;;;3.30;;
52992;SDS011;38875;52.216;21.040;2022-09-17T03:44:14;7.40;;;3.70;;
52992;SDS011;38875;52.216;21.040;2022-09-17T03:46:40;8.38;;;3.78;;
52992;SDS011;38875;52.216;21.040;2022-09-17T03:49:06;8.30;;;3.50;;
52992;SDS011;38875;52.216;21.040;2022-09-17T03:51:33;8.82;;;3.53;;
52992;SDS011;38875;52.216;21.040;2022-09-17T03:53:59;12.13;;;3.78;;
52992;SDS011;38875;52.216;21.040;2022-09-17T03:56:25;7.60;;;3.80;;
52992;SDS011;38875;52.216;21.040;2022-09-17T03:58:51;8.77;;;3.65;;
52992;SDS011;38875;52.216;21.040;2022-09-17T04:01:22;8.52;;;4.35;;
52992;SDS011;38875;52.216;21.040;2022-09-17T04:03:47;9.60;;;4.00;;
52992;SDS011;38875;52.216;21.040;2022-09-17T04:06:13;8.75;;;4.40;;
52992;SDS011;38875;52.216;21.040;2022-09-17T04:08:39;10.63;;;4.05;;
52992;SDS011;38875;52.216;21.040;2022-09-17T04:11:04;9.65;;;3.78;;
52992;SDS011;38875;52.216;21.040;2022-09-17T04:13:32;9.45;;;4.10;;
52992;SDS011;38875;52.216;21.040;2022-09-17T04:15:57;7.72;;;3.35;;
52992;SDS011;38875;52.216;21.040;2022-09-17T04:18:23;7.78;;;3.72;;
52992;SDS011;38875;52.216;21.040;2022-09-17T04:20:49;11.57;;;4.13;;
52992;SDS011;38875;52.216;21.040;2022-09-17T04:26:06;10.50;;;4.13;;
52992;SDS011;38875;52.216;21.040;2022-09-17T04:28:32;10.65;;;3.80;;
52992;SDS011;38875;52.216;21.040;2022-09-17T04:30:58;9.32;;;4.10;;
52992;SDS011;38875;52.216;21.040;2022-09-17T04:33:24;15.05;;;4.00;;
52992;SDS011;38875;52.216;21.040;2022-09-17T04:35:50;11.23;;;4.00;;
52992;SDS011;38875;52.216;21.040;2022-09-17T04:38:15;9.00;;;4.47;;
52992;SDS011;38875;52.216;21.040;2022-09-17T04:40:43;10.68;;;4.15;;
52992;SDS011;38875;52.216;21.040;2022-09-17T04:43:11;11.52;;;3.63;;
52992;SDS011;38875;52.216;21.040;2022-09-17T04:45:37;7.60;;;3.80;;
52992;SDS011;38875;52.216;21.040;2022-09-17T04:48:02;11.77;;;4.32;;
52992;SDS011;38875;52.216;21.040;2022-09-17T04:50:29;10.95;;;4.28;;
52992;SDS011;38875;52.216;21.040;2022-09-17T04:52:55;8.13;;;3.92;;
52992;SDS011;38875;52.216;21.040;2022-09-17T04:55:20;6.00;;;3.42;;
52992;SDS011;38875;52.216;21.040;2022-09-17T04:57:47;11.23;;;4.18;;
52992;SDS011;38875;52.216;21.040;2022-09-17T05:00:15;12.35;;;4.53;;
52992;SDS011;38875;52.216;21.040;2022-09-17T05:02:45;8.13;;;4.00;;
52992;SDS011;38875;52.216;21.040;2022-09-17T05:05:12;7.85;;;3.47;;
52992;SDS011;38875;52.216;21.040;2022-09-17T05:07:39;8.57;;;3.97;;
52992;SDS011;38875;52.216;21.040;2022-09-17T05:10:06;9.07;;;3.60;;
52992;SDS011;38875;52.216;21.040;2022-09-17T05:12:33;6.60;;;3.75;;
52992;SDS011;38875;52.216;21.040;2022-09-17T05:14:59;11.00;;;3.95;;
52992;SDS011;38875;52.216;21.040;2022-09-17T05:17:25;8.43;;;3.78;;
52992;SDS011;38875;52.216;21.040;2022-09-17T05:19:50;6.40;;;3.55;;
52992;SDS011;38875;52.216;21.040;2022-09-17T05:22:18;8.27;;;3.88;;
52992;SDS011;38875;52.216;21.040;2022-09-17T05:24:44;6.10;;;3.70;;
52992;SDS011;38875;52.216;21.040;2022-09-17T05:27:10;10.40;;;3.60;;
52992;SDS011;38875;52.216;21.040;2022-09-17T05:29:36;7.75;;;3.50;;
52992;SDS011;38875;52.216;21.040;2022-09-17T05:32:02;10.00;;;3.90;;
52992;SDS011;38875;52.216;21.040;2022-09-17T05:34:28;6.05;;;3.25;;
52992;SDS011;38875;52.216;21.040;2022-09-17T05:36:54;7.03;;;3.30;;
52992;SDS011;38875;52.216;21.040;2022-09-17T05:39:20;7.03;;;3.65;;
52992;SDS011;38875;52.216;21.040;2022-09-17T05:41:50;11.13;;;3.78;;
52992;SDS011;38875;52.216;21.040;2022-09-17T05:44:17;7.30;;;2.90;;
52992;SDS011;38875;52.216;21.040;2022-09-17T05:46:44;6.05;;;3.28;;
52992;SDS011;38875;52.216;21.040;2022-09-17T05:49:10;10.45;;;2.92;;
52992;SDS011;38875;52.216;21.040;2022-09-17T05:51:37;8.38;;;2.85;;
52992;SDS011;38875;52.216;21.040;2022-09-17T05:54:02;7.68;;;2.90;;
52992;SDS011;38875;52.216;21.040;2022-09-17T05:56:28;7.40;;;2.63;;
52992;SDS011;38875;52.216;21.040;2022-09-17T05:58:54;8.25;;;2.83;;
52992;SDS011;38875;52.216;21.040;2022-09-17T06:01:21;4.65;;;2.47;;
52992;SDS011;38875;52.216;21.040;2022-09-17T06:03:47;5.03;;;2.70;;
52992;SDS011;38875;52.216;21.040;2022-09-17T06:06:13;4.85;;;1.90;;
52992;SDS011;38875;52.216;21.040;2022-09-17T06:08:39;6.90;;;2.53;;
52992;SDS011;38875;52.216;21.040;2022-09-17T06:11:05;7.28;;;2.30;;
52992;SDS011;38875;52.216;21.040;2022-09-17T06:13:33;8.98;;;2.42;;
52992;SDS011;38875;52.216;21.040;2022-09-17T06:16:00;6.78;;;2.25;;
52992;SDS011;38875;52.216;21.040;2022-09-17T06:18:27;6.03;;;2.00;;
52992;SDS011;38875;52.216;21.040;2022-09-17T06:20:59;7.40;;;2.17;;
52992;SDS011;38875;52.216;21.040;2022-09-17T06:23:26;5.90;;;2.20;;
52992;SDS011;38875;52.216;21.040;2022-09-17T06:25:56;3.72;;;1.70;;
52992;SDS011;38875;52.216;21.040;2022-09-17T06:28:24;8.40;;;2.30;;
52992;SDS011;38875;52.216;21.040;2022-09-17T06:30:50;3.92;;;1.70;;
52992;SDS011;38875;52.216;21.040;2022-09-17T06:33:20;4.82;;;1.90;;
52992;SDS011;38875;52.216;21.040;2022-09-17T06:35:47;5.95;;;2.28;;
52992;SDS011;38875;52.216;21.040;2022-09-17T06:38:13;5.68;;;1.75;;
52992;SDS011;38875;52.216;21.040;2022-09-17T06:40:39;6.03;;;1.73;;
52992;SDS011;38875;52.216;21.040;2022-09-17T06:43:04;7.97;;;1.80;;
52992;SDS011;38875;52.216;21.040;2022-09-17T06:45:30;6.78;;;1.80;;
52992;SDS011;38875;52.216;21.040;2022-09-17T06:47:56;6.65;;;2.17;;
52992;SDS011;38875;52.216;21.040;2022-09-17T06:50:22;6.32;;;1.80;;
52992;SDS011;38875;52.216;21.040;2022-09-17T06:52:52;5.07;;;1.73;;
52992;SDS011;38875;52.216;21.040;2022-09-17T06:55:19;7.50;;;1.70;;
52992;SDS011;38875;52.216;21.040;2022-09-17T06:57:45;8.13;;;1.92;;
52992;SDS011;38875;52.216;21.040;2022-09-17T07:00:12;5.70;;;1.92;;
52992;SDS011;38875;52.216;21.040;2022-09-17T07:02:40;6.38;;;1.92;;
52992;SDS011;38875;52.216;21.040;2022-09-17T07:05:06;4.53;;;1.50;;
52992;SDS011;38875;52.216;21.040;2022-09-17T07:07:32;5.00;;;1.60;;
52992;SDS011;38875;52.216;21.040;2022-09-17T07:10:00;7.68;;;2.40;;
52992;SDS011;38875;52.216;21.040;2022-09-17T07:12:27;4.55;;;1.42;;
52992;SDS011;38875;52.216;21.040;2022-09-17T07:14:52;5.15;;;1.77;;
52992;SDS011;38875;52.216;21.040;2022-09-17T07:17:18;6.07;;;2.00;;
52992;SDS011;38875;52.216;21.040;2022-09-17T07:19:44;9.52;;;2.17;;
52992;SDS011;38875;52.216;21.040;2022-09-17T07:22:10;7.95;;;2.17;;
52992;SDS011;38875;52.216;21.040;2022-09-17T07:24:38;4.97;;;2.03;;
52992;SDS011;38875;52.216;21.040;2022-09-17T07:27:04;7.20;;;2.17;;
52992;SDS011;38875;52.216;21.040;2022-09-17T07:29:30;7.55;;;2.03;;
52992;SDS011;38875;52.216;21.040;2022-09-17T07:31:56;6.38;;;2.05;;
52992;SDS011;38875;52.216;21.040;2022-09-17T07:34:24;5.68;;;2.40;;
52992;SDS011;38875;52.216;21.040;2022-09-17T07:36:52;9.32;;;2.75;;
52992;SDS011;38875;52.216;21.040;2022-09-17T07:39:18;6.50;;;1.98;;
52992;SDS011;38875;52.216;21.040;2022-09-17T07:41:43;8.77;;;2.30;;
52992;SDS011;38875;52.216;21.040;2022-09-17T07:44:09;10.85;;;2.65;;
52992;SDS011;38875;52.216;21.040;2022-09-17T07:46:35;7.63;;;2.20;;
52992;SDS011;38875;52.216;21.040;2022-09-17T07:49:01;6.10;;;2.20;;
52992;SDS011;38875;52.216;21.040;2022-09-17T07:51:27;5.10;;;2.38;;
52992;SDS011;38875;52.216;21.040;2022-09-17T07:53:54;9.13;;;2.55;;
52992;SDS011;38875;52.216;21.040;2022-09-17T07:56:22;6.60;;;2.25;;
52992;SDS011;38875;52.216;21.040;2022-09-17T07:58:49;6.60;;;2.38;;
52992;SDS011;38875;52.216;21.040;2022-09-17T08:01:15;5.22;;;2.15;;
52992;SDS011;38875;52.216;21.040;2022-09-17T08:03:42;8.38;;;2.50;;
52992;SDS011;38875;52.216;21.040;2022-09-17T08:06:13;7.60;;;2.53;;
52992;SDS011;38875;52.216;21.040;2022-09-17T08:08:42;7.18;;;2.55;;
52992;SDS011;38875;52.216;21.040;2022-09-17T08:11:09;7.85;;;2.20;;
52992;SDS011;38875;52.216;21.040;2022-09-17T08:13:35;9.45;;;2.35;;
52992;SDS011;38875;52.216;21.040;2022-09-17T08:16:03;8.48;;;2.40;;
52992;SDS011;38875;52.216;21.040;2022-09-17T08:18:34;7.80;;;2.47;;
52992;SDS011;38875;52.216;21.040;2022-09-17T08:21:01;7.35;;;2.20;;
52992;SDS011;38875;52.216;21.040;2022-09-17T08:23:28;8.35;;;2.65;;
52992;SDS011;38875;52.216;21.040;2022-09-17T08:25:56;5.93;;;2.65;;
52992;SDS011;38875;52.216;21.040;2022-09-17T08:28:24;4.88;;;2.50;;
52992;SDS011;38875;52.216;21.040;2022-09-17T08:30:51;5.30;;;2.10;;
52992;SDS011;38875;52.216;21.040;2022-09-17T08:33:20;5.18;;;2.15;;
52992;SDS011;38875;52.216;21.040;2022-09-17T08:35:52;9.85;;;2.05;;
52992;SDS011;38875;52.216;21.040;2022-09-17T08:38:19;5.72;;;2.30;;
52992;SDS011;38875;52.216;21.040;2022-09-17T08:43:33;6.35;;;2.30;;
52992;SDS011;38875;52.216;21.040;2022-09-17T08:46:17;6.90;;;2.58;;
52992;SDS011;38875;52.216;21.040;2022-09-17T08:56:44;7.72;;;1.88;;
52992;SDS011;38875;52.216;21.040;2022-09-17T08:59:30;4.15;;;1.90;;
52992;SDS011;38875;52.216;21.040;2022-09-17T09:07:47;6.43;;;2.42;;
52992;SDS011;38875;52.216;21.040;2022-09-17T09:11:24;4.25;;;1.58;;
52992;SDS011;38875;52.216;21.040;2022-09-17T09:13:19;5.70;;;1.92;;
52992;SDS011;38875;52.216;21.040;2022-09-17T09:16:16;2.58;;;1.30;;
52992;SDS011;38875;52.216;21.040;2022-09-17T09:18:45;2.78;;;1.45;;
52992;SDS011;38875;52.216;21.040;2022-09-17T09:21:21;6.35;;;1.60;;
52992;SDS011;38875;52.216;21.040;2022-09-17T09:23:55;3.25;;;1.45;;
52992;SDS011;38875;52.216;21.040;2022-09-17T09:26:26;2.53;;;1.30;;
52992;SDS011;38875;52.216;21.040;2022-09-17T09:34:41;5.10;;;1.50;;
52992;SDS011;38875;52.216;21.040;2022-09-17T09:37:18;3.13;;;1.17;;
52992;SDS011;38875;52.216;21.040;2022-09-17T09:39:50;3.45;;;1.55;;
52992;SDS011;38875;52.216;21.040;2022-09-17T09:45:01;6.75;;;1.35;;
52992;SDS011;38875;52.216;21.040;2022-09-17T09:56:23;6.70;;;1.90;;
52992;SDS011;38875;52.216;21.040;2022-09-17T09:59:09;4.30;;;1.30;;
52992;SDS011;38875;52.216;21.040;2022-09-17T10:01:38;3.42;;;1.50;;
52992;SDS011;38875;52.216;21.040;2022-09-17T10:04:25;3.53;;;1.70;;
52992;SDS011;38875;52.216;21.040;2022-09-17T10:06:52;3.90;;;1.70;;
52992;SDS011;38875;52.216;21.040;2022-09-17T10:09:24;5.13;;;1.60;;
52992;SDS011;38875;52.216;21.040;2022-09-17T10:14:36;6.22;;;1.67;;
52992;SDS011;38875;52.216;21.040;2022-09-17T10:17:19;3.00;;;1.27;;
52992;SDS011;38875;52.216;21.040;2022-09-17T10:22:33;5.70;;;1.55;;
52992;SDS011;38875;52.216;21.040;2022-09-17T10:25:01;4.57;;;1.70;;
52992;SDS011;38875;52.216;21.040;2022-09-17T10:27:30;3.45;;;1.60;;
52992;SDS011;38875;52.216;21.040;2022-09-17T10:32:34;3.97;;;1.52;;
52992;SDS011;38875;52.216;21.040;2022-09-17T10:42:45;2.90;;;1.35;;
52992;SDS011;38875;52.216;21.040;2022-09-17T10:45:27;5.55;;;1.80;;
52992;SDS011;38875;52.216;21.040;2022-09-17T10:47:54;5.15;;;1.88;;
52992;SDS011;38875;52.216;21.040;2022-09-17T10:50:23;4.13;;;1.75;;
52992;SDS011;38875;52.216;21.040;2022-09-17T10:52:53;3.17;;;1.70;;
52992;SDS011;38875;52.216;21.040;2022-09-17T10:55:24;4.53;;;1.70;;
52992;SDS011;38875;52.216;21.040;2022-09-17T11:12:19;4.35;;;2.08;;
52992;SDS011;38875;52.216;21.040;2022-09-17T11:17:29;4.47;;;1.67;;
52992;SDS011;38875;52.216;21.040;2022-09-17T11:31:48;3.25;;;1.27;;
52992;SDS011;38875;52.216;21.040;2022-09-17T11:34:22;4.82;;;1.60;;
52992;SDS011;38875;52.216;21.040;2022-09-17T11:39:33;4.97;;;1.63;;
52992;SDS011;38875;52.216;21.040;2022-09-17T11:42:08;4.43;;;1.60;;
52992;SDS011;38875;52.216;21.040;2022-09-17T11:44:46;2.60;;;1.73;;
52992;SDS011;38875;52.216;21.040;2022-09-17T11:47:40;5.28;;;1.85;;
52992;SDS011;38875;52.216;21.040;2022-09-17T11:55:35;2.75;;;1.52;;
52992;SDS011;38875;52.216;21.040;2022-09-17T12:00:50;2.65;;;1.33;;
52992;SDS011;38875;52.216;21.040;2022-09-17T12:03:28;2.72;;;1.33;;
52992;SDS011;38875;52.216;21.040;2022-09-17T12:06:05;2.13;;;1.20;;
52992;SDS011;38875;52.216;21.040;2022-09-17T12:16:32;2.85;;;1.55;;
52992;SDS011;38875;52.216;21.040;2022-09-17T12:19:15;3.33;;;1.85;;
52992;SDS011;38875;52.216;21.040;2022-09-17T12:21:50;3.60;;;1.42;;
52992;SDS011;38875;52.216;21.040;2022-09-17T12:24:22;3.17;;;1.30;;
52992;SDS011;38875;52.216;21.040;2022-09-17T12:35:02;1.60;;;1.02;;
52992;SDS011;38875;52.216;21.040;2022-09-17T12:46:00;3.60;;;1.65;;
52992;SDS011;38875;52.216;21.040;2022-09-17T12:54:28;5.13;;;1.90;;
52992;SDS011;38875;52.216;21.040;2022-09-17T12:59:54;3.53;;;1.75;;
52992;SDS011;38875;52.216;21.040;2022-09-17T13:05:05;3.85;;;1.60;;
52992;SDS011;38875;52.216;21.040;2022-09-17T13:10:52;3.45;;;1.90;;
52992;SDS011;38875;52.216;21.040;2022-09-17T13:16:16;3.05;;;1.90;;
52992;SDS011;38875;52.216;21.040;2022-09-17T13:21:13;4.50;;;1.90;;
52992;SDS011;38875;52.216;21.040;2022-09-17T13:23:48;4.43;;;2.03;;
52992;SDS011;38875;52.216;21.040;2022-09-17T13:26:20;3.10;;;1.80;;
52992;SDS011;38875;52.216;21.040;2022-09-17T13:28:57;2.45;;;1.70;;
52992;SDS011;38875;52.216;21.040;2022-09-17T13:34:01;3.50;;;1.80;;
52992;SDS011;38875;52.216;21.040;2022-09-17T13:36:40;3.55;;;1.65;;
52992;SDS011;38875;52.216;21.040;2022-09-17T13:39:08;5.15;;;2.33;;
52992;SDS011;38875;52.216;21.040;2022-09-17T13:41:37;4.47;;;2.00;;
52992;SDS011;38875;52.216;21.040;2022-09-17T13:44:06;2.90;;;1.65;;
52992;SDS011;38875;52.216;21.040;2022-09-17T13:46:35;3.67;;;2.08;;
52992;SDS011;38875;52.216;21.040;2022-09-17T13:49:10;4.85;;;2.08;;
52992;SDS011;38875;52.216;21.040;2022-09-17T13:51:41;3.58;;;1.90;;
52992;SDS011;38875;52.216;21.040;2022-09-17T13:54:10;6.43;;;2.55;;
52992;SDS011;38875;52.216;21.040;2022-09-17T13:56:38;4.68;;;2.00;;
52992;SDS011;38875;52.216;21.040;2022-09-17T13:59:13;6.68;;;1.90;;
52992;SDS011;38875;52.216;21.040;2022-09-17T14:01:55;2.55;;;1.60;;
52992;SDS011;38875;52.216;21.040;2022-09-17T14:09:49;3.42;;;1.50;;
52992;SDS011;38875;52.216;21.040;2022-09-17T14:20:53;3.88;;;1.95;;
52992;SDS011;38875;52.216;21.040;2022-09-17T14:23:32;5.68;;;1.90;;
52992;SDS011;38875;52.216;21.040;2022-09-17T14:25:59;5.95;;;1.80;;
52992;SDS011;38875;52.216;21.040;2022-09-17T14:31:43;3.78;;;1.98;;
52992;SDS011;38875;52.216;21.040;2022-09-17T14:34:12;6.68;;;2.03;;
52992;SDS011;38875;52.216;21.040;2022-09-17T14:36:44;3.50;;;1.85;;
52992;SDS011;38875;52.216;21.040;2022-09-17T14:39:13;3.70;;;2.20;;
52992;SDS011;38875;52.216;21.040;2022-09-17T14:41:46;3.60;;;2.20;;
52992;SDS011;38875;52.216;21.040;2022-09-17T14:44:18;4.47;;;2.20;;
52992;SDS011;38875;52.216;21.040;2022-09-17T14:46:53;4.80;;;2.28;;
52992;SDS011;38875;52.216;21.040;2022-09-17T14:51:52;4.97;;;2.40;;
52992;SDS011;38875;52.216;21.040;2022-09-17T14:59:24;3.97;;;2.17;;
52992;SDS011;38875;52.216;21.040;2022-09-17T15:04:57;5.00;;;2.80;;
52992;SDS011;38875;52.216;21.040;2022-09-17T15:07:24;3.33;;;2.20;;
52992;SDS011;38875;52.216;21.040;2022-09-17T15:09:51;4.88;;;2.15;;
52992;SDS011;38875;52.216;21.040;2022-09-17T15:12:21;3.63;;;2.20;;
52992;SDS011;38875;52.216;21.040;2022-09-17T15:14:52;3.97;;;2.10;;
52992;SDS011;38875;52.216;21.040;2022-09-17T15:17:21;6.28;;;2.50;;
52992;SDS011;38875;52.216;21.040;2022-09-17T15:19:49;5.20;;;3.20;;
52992;SDS011;38875;52.216;21.040;2022-09-17T15:22:24;7.53;;;3.47;;
52992;SDS011;38875;52.216;21.040;2022-09-17T15:24:58;8.23;;;3.40;;
52992;SDS011;38875;52.216;21.040;2022-09-17T15:27:42;7.43;;;3.20;;
52992;SDS011;38875;52.216;21.040;2022-09-17T15:30:17;4.47;;;2.75;;
52992;SDS011;38875;52.216;21.040;2022-09-17T15:32:49;9.60;;;3.85;;
52992;SDS011;38875;52.216;21.040;2022-09-17T15:37:49;7.70;;;4.25;;
52992;SDS011;38875;52.216;21.040;2022-09-17T15:45:43;6.65;;;3.78;;
52992;SDS011;38875;52.216;21.040;2022-09-17T15:50:54;8.27;;;3.92;;
52992;SDS011;38875;52.216;21.040;2022-09-17T15:53:23;8.52;;;3.22;;
52992;SDS011;38875;52.216;21.040;2022-09-17T16:08:53;8.13;;;3.45;;
52992;SDS011;38875;52.216;21.040;2022-09-17T16:11:24;7.93;;;3.75;;
52992;SDS011;38875;52.216;21.040;2022-09-17T16:13:54;8.35;;;3.97;;
52992;SDS011;38875;52.216;21.040;2022-09-17T16:16:33;6.95;;;3.72;;
52992;SDS011;38875;52.216;21.040;2022-09-17T16:19:02;6.18;;;3.55;;
52992;SDS011;38875;52.216;21.040;2022-09-17T16:21:29;11.38;;;4.30;;
52992;SDS011;38875;52.216;21.040;2022-09-17T16:23:56;7.85;;;4.10;;
52992;SDS011;38875;52.216;21.040;2022-09-17T16:26:24;7.97;;;4.38;;
52992;SDS011;38875;52.216;21.040;2022-09-17T16:28:56;6.72;;;4.00;;
52992;SDS011;38875;52.216;21.040;2022-09-17T16:31:26;8.40;;;4.35;;
52992;SDS011;38875;52.216;21.040;2022-09-17T16:33:52;7.78;;;4.97;;
52992;SDS011;38875;52.216;21.040;2022-09-17T16:36:19;11.07;;;4.57;;
52992;SDS011;38875;52.216;21.040;2022-09-17T16:38:45;8.25;;;4.90;;
52992;SDS011;38875;52.216;21.040;2022-09-17T16:41:11;8.35;;;4.50;;
52992;SDS011;38875;52.216;21.040;2022-09-17T16:43:37;9.48;;;5.18;;
52992;SDS011;38875;52.216;21.040;2022-09-17T16:46:08;7.85;;;4.90;;
52992;SDS011;38875;52.216;21.040;2022-09-17T16:48:35;8.18;;;5.15;;
52992;SDS011;38875;52.216;21.040;2022-09-17T16:51:07;9.57;;;5.10;;
52992;SDS011;38875;52.216;21.040;2022-09-17T16:53:34;10.93;;;5.13;;
52992;SDS011;38875;52.216;21.040;2022-09-17T16:56:00;9.90;;;5.25;;
52992;SDS011;38875;52.216;21.040;2022-09-17T16:58:26;8.70;;;5.18;;
52992;SDS011;38875;52.216;21.040;2022-09-17T17:00:52;8.10;;;5.05;;
52992;SDS011;38875;52.216;21.040;2022-09-17T17:03:17;9.32;;;5.22;;
52992;SDS011;38875;52.216;21.040;2022-09-17T17:05:43;9.45;;;5.25;;
52992;SDS011;38875;52.216;21.040;2022-09-17T17:08:09;8.88;;;5.15;;
52992;SDS011;38875;52.216;21.040;2022-09-17T17:10:36;8.32;;;4.85;;
52992;SDS011;38875;52.216;21.040;2022-09-17T17:13:02;11.05;;;5.55;;
52992;SDS011;38875;52.216;21.040;2022-09-17T17:15:29;9.50;;;5.72;;
52992;SDS011;38875;52.216;21.040;2022-09-17T17:17:54;10.55;;;6.10;;
52992;SDS011;38875;52.216;21.040;2022-09-17T17:20:20;9.43;;;6.10;;
52992;SDS011;38875;52.216;21.040;2022-09-17T17:22:46;9.48;;;5.47;;
52992;SDS011;38875;52.216;21.040;2022-09-17T17:25:12;12.73;;;6.13;;
52992;SDS011;38875;52.216;21.040;2022-09-17T17:27:39;12.23;;;5.75;;
52992;SDS011;38875;52.216;21.040;2022-09-17T17:30:07;10.18;;;5.80;;
52992;SDS011;38875;52.216;21.040;2022-09-17T17:32:34;13.38;;;6.65;;
52992;SDS011;38875;52.216;21.040;2022-09-17T17:35:01;11.45;;;6.80;;
52992;SDS011;38875;52.216;21.040;2022-09-17T17:37:28;13.38;;;7.38;;
52992;SDS011;38875;52.216;21.040;2022-09-17T17:39:53;12.20;;;6.75;;
52992;SDS011;38875;52.216;21.040;2022-09-17T17:42:19;15.52;;;7.78;;
52992;SDS011;38875;52.216;21.040;2022-09-17T17:44:46;14.93;;;7.82;;
52992;SDS011;38875;52.216;21.040;2022-09-17T17:47:12;12.73;;;7.43;;
52992;SDS011;38875;52.216;21.040;2022-09-17T17:49:38;14.95;;;7.97;;
52992;SDS011;38875;52.216;21.040;2022-09-17T17:52:04;14.13;;;8.27;;
52992;SDS011;38875;52.216;21.040;2022-09-17T17:54:30;13.00;;;8.60;;
52992;SDS011;38875;52.216;21.040;2022-09-17T17:56:56;15.00;;;8.30;;
52992;SDS011;38875;52.216;21.040;2022-09-17T17:59:22;14.05;;;8.95;;
52992;SDS011;38875;52.216;21.040;2022-09-17T18:01:47;14.70;;;7.93;;
52992;SDS011;38875;52.216;21.040;2022-09-17T18:04:13;14.77;;;8.68;;
52992;SDS011;38875;52.216;21.040;2022-09-17T18:06:39;12.70;;;8.07;;
52992;SDS011;38875;52.216;21.040;2022-09-17T18:09:05;16.20;;;9.20;;
52992;SDS011;38875;52.216;21.040;2022-09-17T18:11:31;14.23;;;8.63;;
52992;SDS011;38875;52.216;21.040;2022-09-17T18:13:58;16.42;;;8.98;;
52992;SDS011;38875;52.216;21.040;2022-09-17T18:16:26;17.83;;;9.85;;
52992;SDS011;38875;52.216;21.040;2022-09-17T18:18:54;17.00;;;9.65;;
52992;SDS011;38875;52.216;21.040;2022-09-17T18:21:24;16.02;;;9.45;;
52992;SDS011;38875;52.216;21.040;2022-09-17T18:23:51;16.38;;;9.30;;
52992;SDS011;38875;52.216;21.040;2022-09-17T18:26:18;16.73;;;9.40;;
52992;SDS011;38875;52.216;21.040;2022-09-17T18:28:46;16.08;;;9.55;;
52992;SDS011;38875;52.216;21.040;2022-09-17T18:31:31;14.88;;;9.20;;
52992;SDS011;38875;52.216;21.040;2022-09-17T18:34:00;16.25;;;9.27;;
52992;SDS011;38875;52.216;21.040;2022-09-17T18:36:29;16.80;;;9.70;;
52992;SDS011;38875;52.216;21.040;2022-09-17T18:38:58;18.75;;;10.45;;
52992;SDS011;38875;52.216;21.040;2022-09-17T18:41:30;15.93;;;10.18;;